Helen, Georgia
Current Conditions -  °F | °C
As of 3:35 AM on Tuesday 21 Oct 2014 (Local Time) from KTOC Reporting Station
Clear Clear  
Wind Chill: 53°   Ceiling: Unl
Heat Index: 53°   Visibility: 10mi
Dew Point: 49°   Wind: 3mph
Humidity: 85%   Direction: 280°W
Pressure: 29.99"   Gusts: NA
Location:  34.7°N, 83.73°W
Report Text: KTOC 210735Z AUTO 28003KT 10SM CLR 12/09 A2999 RMK AO2 T01170092
Loading
Personal Weather Stations






























Interactive Weather Map New forecast layout! Learn more

10-Day Weather Forecast

Advertisements
Track Severe Weather on mobile